Viroqua, WI (54665)

1:00 AM CST on February 09, 2016 (GMT -0600)
Viroqua | | Change Station
CLOSE
Current Station
Airport
Location: Viroqua,
Elevation: 1293 ft
Nearby Weather Stations

Elev 1293 ft 43.58 °N, 90.90 °W | Updated 25 minutes ago

Overcast
Overcast
11 °F
Feels Like -6 °F
N
16
Wind Variable Wind from NNW
Gusts 22 mph

Today
High -- | Low -- °F
--% Chance of Precip.
Yesterday
High -- | Low -- °F
Precip. -- in
Pressure 29.82 in
Visibility 10.0 miles
Clouds Overcast 1900 ft
Windchill -6 °F
Dew Point 6 °F
Humidity 79%
Rainfall 0.00 in
Snow Depth Not available.
7:10 AM 5:25 PM
New Moon, 1% visible
METAR KY51 090635Z AUTO 34014G19KT 10SM OVC019 M12/M15 A2982 RMK AO1 T11161146
Pressure 29.82 in
Visibility 10.0 miles
Clouds Overcast 1900 ft
Windchill -6 °F
Dew Point 6 °F
Humidity 79%
Rainfall 0.00 in
Snow Depth Not available.
7:10 AM 5:25 PM
New Moon, 1% visible
METAR KY51 090635Z AUTO 34014G19KT 10SM OVC019 M12/M15 A2982 RMK AO1 T11161146

10-Day Weather Forecast

Almanac

Astronomy

Feb. 09, 2016 Rise Set
Actual Time
Civil Twilight
Nautical Twilight
Astronomical Twilight
Moon
Length of Visible Light
Length of Day
Tomorrow will be .
, % of the Moon is Illuminated

Today's Extremes

State Highs State Lows

Community

WunderPhotos

Upload Photos

1,891,571 photos uploaded!

WunderBlog® & News

Nearby

Air Quality

  Air Quality AQ Index Pollutant
Not available.

Snow Depth

Station Depth Elevation

Earthquake Activity

City Distance Mag. Time & Date
Minimum magnitude displayed is 2.5.

Coastal Water Temperatures

Place Temperature

Stations

Nearby Weather Stations

Station Location Temp. Windchill Dew Point Humidity Wind Precip. Elev Updated Type
                   

Watches & Warnings

There are currently no watches in effect.